首页
METAR-TAF:

METAR-TAF

机场 :

錫比烏, 罗马尼亚

纬度: 45-48N, 经度: 024-09E, 海拔: 443米

当前天气观测

该预报发布于39分钟前的18:00 UTC
静风
温度 18°C
湿度 77%
气压 1015 hPa
能见度10公里或以上
多云层高于7400英尺

METAR: LRSB 151800Z 00000KT 9999 BKN074 18/14 Q1015 NOSIG

时间: 21:39 (18:39 UTC)

预报

该预报发布于1小时和39分钟前的17:00 UTC
预报有效从15日的 18点(UTC)到 16日的 18点(UTC)
风速8节,风向西转西南
能见度10公里或以上
散云层高于4500英尺, 积雨云.
成为
从 15日的 18点(UTC)到 15日的 20点(UTC)
散云层高于5000英尺
成为
从 16日的 07点(UTC)到 16日的 09点(UTC)
散云层高于4500英尺, 积雨云.
短暂存在
从 16日的 09点(UTC)到 16日的 15点(UTC)
风速15节,风向西北,有时为25节阵风
能見度: 5000
雷暴, 雨
成为
从 16日的 15点(UTC)到 16日的 17点(UTC)

TAF: LRSB 151700Z 1518/1618 25008KT 9999 SCT045CB BECMG 1518/1520 SCT050 BECMG 1607/1609 SCT045CB TEMPO 1609/1615 32015G25KT 5000 TSRA BECMG 1615/1617 NSC

超过4000个机场的气象观测和天气预报(METAR&TAF报告)。

可查询的气象台以黄色和红色小点在地图上表示。

将鼠标移到小点上方,可查看气象台名称。

然后点击查看天气观测和预报。

如需切换地图:点击带黑十字的绿色按钮放大地图;点击带横线的绿色按钮缩小地图;或者点击绿色箭头查看邻近地区的地图。


METAR-TAF: